Time;durP1;ratioP1;P1;durP2;ratioP2;P2;SDS_P1;SDS_P2;PMS_P1;PMS_P2;Temp;Humidity;BMP_temperature;BMP_pressure;BME280_temperature;BME280_humidity;BME280_pressure;Samples;Min_cycle;Max_cycle;Signal;HPM_P1;HPM_P2
2022/07/02 00:01:21;;;;;;;13.40;11.20;;;;;;;18.06;71.46;101694.16;5058053;28;20256;-71
2022/07/02 00:03:51;;;;;;;12.53;11.23;;;;;;;18.52;69.89;101684.16;5058359;28;20177;-71
2022/07/02 00:06:19;;;;;;;13.53;12.13;;;;;;;18.29;70.76;101678.16;5058127;28;20201;-71
2022/07/02 00:08:45;;;;;;;15.93;11.30;;;;;;;18.41;69.77;101685.97;5058095;28;20420;-70
2022/07/02 00:11:13;;;;;;;12.53;11.33;;;;;;;18.25;69.96;101672.06;5058575;28;20413;-69
2022/07/02 00:13:39;;;;;;;15.67;10.97;;;;;;;18.41;69.58;101670.16;5057751;28;20430;-69
2022/07/02 00:16:04;;;;;;;12.40;11.20;;;;;;;18.52;69.10;101675.34;5057440;28;20390;-69
2022/07/02 00:18:31;;;;;;;13.83;10.37;;;;;;;18.31;69.41;101665.84;5057793;28;20233;-70
2022/07/02 00:20:56;;;;;;;13.17;10.83;;;;;;;18.31;69.41;101664.06;5058007;28;20170;-69
2022/07/02 00:23:21;;;;;;;11.20;10.10;;;;;;;18.38;68.46;101664.91;5057982;28;20438;-69
2022/07/02 00:26:08;;;;;;;11.13;10.03;;;;;;;18.37;68.15;101668.41;5057781;28;20201;-69
2022/07/02 00:28:37;;;;;;;11.03;9.93;;;;;;;18.22;68.92;101674.69;5057750;28;20260;-69
2022/07/02 00:31:02;;;;;;;10.83;9.30;;;;;;;18.04;68.35;101675.69;5057784;28;20387;-69
2022/07/02 00:33:29;;;;;;;10.30;9.17;;;;;;;18.12;68.73;101684.44;5057794;28;20420;-69
2022/07/02 00:35:56;;;;;;;9.83;8.80;;;;;;;18.36;67.58;101677.25;5058226;28;20161;-68
2022/07/02 00:38:21;;;;;;;11.63;10.63;;;;;;;18.23;67.83;101670.31;5057098;28;20416;-69
2022/07/02 00:40:47;;;;;;;10.60;9.23;;;;;;;18.05;68.02;101677.47;5057590;28;20435;-69
2022/07/02 00:43:13;;;;;;;12.60;10.60;;;;;;;18.06;68.59;101676.56;5057122;28;20192;-70
2022/07/02 00:45:39;;;;;;;13.17;10.60;;;;;;;17.96;68.31;101677.50;5056792;28;20455;-70
2022/07/02 00:48:04;;;;;;;12.17;10.87;;;;;;;17.84;68.68;101674.00;5057566;28;20225;-70
2022/07/02 00:50:30;;;;;;;17.50;10.57;;;;;;;18.11;67.60;101674.75;5057256;28;20277;-70
2022/07/02 00:52:55;;;;;;;13.70;11.40;;;;;;;18.12;68.01;101678.31;5057543;28;20273;-69
2022/07/02 00:55:21;;;;;;;11.90;10.80;;;;;;;18.16;67.77;101685.31;5059897;28;20485;-70
2022/07/02 00:57:47;;;;;;;11.90;10.73;;;;;;;18.08;67.57;101684.47;5062106;28;20173;-69
2022/07/02 01:00:16;;;;;;;12.07;11.07;;;;;;;17.84;68.77;101683.69;5061718;28;20303;-69
2022/07/02 01:02:45;;;;;;;12.60;11.30;;;;;;;17.95;67.97;101687.16;5061448;28;20311;-69
2022/07/02 01:05:13;;;;;;;11.67;10.57;;;;;;;17.78;68.77;101678.44;5061640;28;20815;-69
2022/07/02 01:07:40;;;;;;;12.30;11.30;;;;;;;17.53;68.83;101683.84;5061345;28;20511;-70
2022/07/02 01:10:18;;;;;;;11.37;10.27;;;;;;;17.48;69.78;101686.50;5060545;28;20423;-72
2022/07/02 01:12:48;;;;;;;12.43;10.90;;;;;;;17.63;69.13;101682.03;5060664;28;20404;-70
2022/07/02 01:15:15;;;;;;;12.07;10.90;;;;;;;17.57;68.78;101688.22;5060640;28;20651;-71
2022/07/02 01:17:41;;;;;;;12.83;11.37;;;;;;;17.53;69.40;101682.97;5061077;28;20718;-70
2022/07/02 01:20:07;;;;;;;12.10;11.03;;;;;;;17.44;69.21;101690.03;5061288;28;20503;-71
2022/07/02 01:22:38;;;;;;;13.17;11.97;;;;;;;17.70;68.59;101682.88;5061325;28;20169;-70
2022/07/02 01:25:04;;;;;;;12.70;11.50;;;;;;;17.51;69.02;101689.13;5049581;28;20438;-72
2022/07/02 01:27:29;;;;;;;13.60;11.37;;;;;;;17.36;69.93;101696.19;5040916;28;20413;-69
2022/07/02 01:29:55;;;;;;;13.17;11.70;;;;;;;17.39;69.25;101696.22;5041534;28;20784;-69
2022/07/02 01:32:20;;;;;;;12.77;11.67;;;;;;;17.34;69.50;101688.31;5041001;28;20175;-69
2022/07/02 01:34:48;;;;;;;12.33;11.30;;;;;;;17.30;69.52;101692.69;5040959;28;20555;-69
2022/07/02 01:37:16;;;;;;;13.53;12.20;;;;;;;17.24;69.54;101699.75;5041453;28;20209;-69
2022/07/02 01:39:43;;;;;;;12.43;10.67;;;;;;;17.31;70.19;101688.31;5040186;28;20456;-71
2022/07/02 01:42:09;;;;;;;12.53;11.23;;;;;;;17.21;69.92;101689.22;5041009;28;20483;-71
2022/07/02 01:44:35;;;;;;;12.17;11.07;;;;;;;17.55;68.90;101681.19;5041057;28;20445;-70
2022/07/02 01:47:05;;;;;;;12.17;11.10;;;;;;;17.36;68.96;101696.19;5040778;28;20532;-71
2022/07/02 01:49:31;;;;;;;12.73;11.47;;;;;;;17.32;69.59;101690.94;5040768;28;20432;-70
2022/07/02 01:51:56;;;;;;;12.07;10.90;;;;;;;17.19;69.70;101693.63;5040991;28;20380;-70
2022/07/02 01:54:22;;;;;;;12.30;11.00;;;;;;;17.24;69.40;101699.75;5040460;28;20206;-70
2022/07/02 01:56:48;;;;;;;12.17;10.97;;;;;;;17.08;69.28;101705.06;5040735;28;20209;-69
2022/07/02 01:59:13;;;;;;;11.87;10.67;;;;;;;17.27;69.08;101715.56;5040882;28;20453;-69
2022/07/02 02:01:42;;;;;;;12.07;11.00;;;;;;;17.03;69.36;101717.34;5040455;28;20229;-70
2022/07/02 02:04:08;;;;;;;12.67;11.47;;;;;;;17.12;69.35;101714.72;5040323;28;20166;-70
2022/07/02 02:06:33;;;;;;;12.90;11.00;;;;;;;17.05;69.48;101709.44;5041410;28;20371;-69
2022/07/02 02:08:59;;;;;;;14.20;10.80;;;;;;;17.07;68.81;101712.97;5040458;28;20544;-70
2022/07/02 02:11:24;;;;;;;13.33;11.30;;;;;;;17.23;67.97;101717.31;5040210;28;20178;-70
2022/07/02 02:13:50;;;;;;;11.30;10.20;;;;;;;16.77;68.52;101720.00;5040510;28;20525;-70
2022/07/02 02:16:16;;;;;;;11.57;10.37;;;;;;;17.07;68.35;101721.75;5039511;28;20233;-70
2022/07/02 02:18:41;;;;;;;11.40;10.33;;;;;;;17.06;67.63;101719.13;5040192;28;20245;-70
2022/07/02 02:21:06;;;;;;;10.17;9.37;;;;;;;17.18;68.14;101724.34;5040745;28;20257;-70
2022/07/02 02:23:32;;;;;;;12.23;10.87;;;;;;;17.32;67.40;101721.72;5040503;28;20174;-70
2022/07/02 02:25:57;;;;;;;11.10;10.10;;;;;;;17.03;68.27;101722.63;5040252;28;20252;-70
2022/07/02 02:28:23;;;;;;;11.20;10.30;;;;;;;17.02;68.47;101720.88;5040830;28;20181;-69
2022/07/02 02:30:48;;;;;;;11.70;10.80;;;;;;;17.01;68.05;101727.03;5040229;28;20201;-69
2022/07/02 02:33:13;;;;;;;11.37;10.37;;;;;;;17.10;68.09;101726.13;5039849;28;20213;-69
2022/07/02 02:35:39;;;;;;;10.33;9.43;;;;;;;17.03;67.46;101733.16;5039439;28;20217;-71
2022/07/02 02:38:04;;;;;;;11.13;10.13;;;;;;;17.09;67.79;101727.91;5039921;28;20184;-69
2022/07/02 02:40:29;;;;;;;10.97;9.90;;;;;;;16.94;67.88;101741.06;5038939;28;20458;-69
2022/07/02 02:42:55;;;;;;;10.77;9.80;;;;;;;16.98;67.88;101738.44;5040038;28;20261;-70
2022/07/02 02:45:20;;;;;;;11.30;10.20;;;;;;;16.92;67.52;101745.47;5039654;28;20179;-70
2022/07/02 02:47:45;;;;;;;11.50;10.50;;;;;;;16.83;67.37;101746.31;5039661;28;20599;-70
2022/07/02 02:50:11;;;;;;;10.40;9.40;;;;;;;16.93;67.40;101748.13;5040028;28;20171;-70
2022/07/02 02:52:36;;;;;;;11.23;10.23;;;;;;;17.12;67.56;101756.00;5039507;28;20174;-70
2022/07/02 02:55:02;;;;;;;10.83;9.83;;;;;;;17.04;67.48;101748.09;5039401;28;20166;-70
2022/07/02 02:57:27;;;;;;;10.40;9.40;;;;;;;16.96;67.71;101749.88;5039962;28;20491;-70
2022/07/02 02:59:53;;;;;;;11.33;10.30;;;;;;;16.80;68.00;101747.19;5039482;28;20170;-69
2022/07/02 03:02:18;;;;;;;9.93;9.13;;;;;;;16.98;67.49;101753.38;5039357;28;20170;-69
2022/07/02 03:04:44;;;;;;;10.70;9.77;;;;;;;17.00;66.99;101754.25;5039462;28;20253;-68
2022/07/02 03:07:09;;;;;;;11.23;9.60;;;;;;;17.12;66.61;101762.16;5039277;28;20170;-70
2022/07/02 03:09:34;;;;;;;9.47;8.57;;;;;;;17.06;66.75;101762.16;5039131;28;20233;-70
2022/07/02 03:12:00;;;;;;;9.90;8.93;;;;;;;16.89;66.65;101762.16;5039606;28;20227;-70
2022/07/02 03:14:25;;;;;;;9.40;8.37;;;;;;;17.24;66.09;101766.53;5038859;28;20557;-69
2022/07/02 03:16:50;;;;;;;9.33;8.40;;;;;;;17.22;65.40;101770.03;5038784;28;20251;-68
2022/07/02 03:19:16;;;;;;;10.00;9.10;;;;;;;17.03;65.02;101767.41;5038327;28;20174;-68
2022/07/02 03:21:41;;;;;;;9.80;9.00;;;;;;;17.08;65.37;101765.66;5039195;28;20185;-68
2022/07/02 03:24:06;;;;;;;10.40;9.40;;;;;;;17.22;64.49;101770.03;5038717;28;20268;-68
2022/07/02 03:26:32;;;;;;;9.00;8.30;;;;;;;17.20;65.33;101770.03;5039166;28;20193;-68
2022/07/02 03:28:58;;;;;;;10.30;8.47;;;;;;;17.11;65.29;101776.19;5038815;28;20201;-68
2022/07/02 03:31:23;;;;;;;8.60;7.83;;;;;;;17.16;64.54;101778.84;5038711;28;20166;-67
2022/07/02 03:33:49;;;;;;;9.20;8.30;;;;;;;17.26;64.00;101792.88;5038912;28;20416;-68
2022/07/02 03:36:14;;;;;;;11.20;8.40;;;;;;;17.17;64.41;101776.19;5053966;28;20493;-67
2022/07/02 03:38:40;;;;;;;9.93;8.77;;;;;;;17.03;64.69;101783.22;5057714;28;20250;-67
2022/07/02 03:41:06;;;;;;;9.47;8.67;;;;;;;17.63;63.06;101785.78;5058328;28;20183;-67
2022/07/02 03:43:32;;;;;;;10.90;8.47;;;;;;;18.63;60.09;101781.78;5056537;28;20539;-68
2022/07/02 03:45:57;;;;;;;8.10;7.40;;;;;;;19.78;57.04;101780.69;5058176;28;20415;-68
2022/07/02 03:48:23;;;;;;;7.57;6.57;;;;;;;19.91;55.55;101777.03;5058192;28;20470;-68
2022/07/02 03:50:48;;;;;;;7.30;6.70;;;;;;;20.20;54.74;101773.13;5049563;28;20194;-69
2022/07/02 03:53:14;;;;;;;9.00;6.60;;;;;;;20.31;53.75;101783.56;5054689;28;20505;-69
2022/07/02 03:55:39;;;;;;;11.00;6.60;;;;;;;20.93;52.46;101770.28;5058188;28;20196;-69
2022/07/02 03:58:05;;;;;;;7.27;6.67;;;;;;;20.00;54.24;101770.78;5058280;28;20490;-68
2022/07/02 04:00:30;;;;;;;7.33;6.60;;;;;;;21.08;51.08;101768.25;5057810;28;20539;-68
2022/07/02 04:02:55;;;;;;;7.40;6.67;;;;;;;21.08;50.75;101773.53;5058113;28;20439;-68
2022/07/02 04:05:21;;;;;;;6.43;5.83;;;;;;;21.26;50.57;101769.72;5058234;28;20170;-68
2022/07/02 04:07:46;;;;;;;7.10;6.40;;;;;;;21.38;49.99;101772.13;5058157;28;20180;-68
2022/07/02 04:10:11;;;;;;;7.00;6.40;;;;;;;21.66;49.09;101771.59;5058539;28;20417;-68
2022/07/02 04:12:37;;;;;;;6.10;5.60;;;;;;;21.85;49.84;101775.63;5058023;28;20175;-68
2022/07/02 04:15:03;;;;;;;7.20;5.77;;;;;;;22.30;48.34;101784.38;5058072;28;20169;-68
2022/07/02 04:17:29;;;;;;;6.63;5.93;;;;;;;22.46;47.66;101780.53;5057382;28;20335;-67
2022/07/02 04:19:55;;;;;;;6.13;5.30;;;;;;;22.61;47.19;101776.63;5058102;28;20420;-67
2022/07/02 04:22:20;;;;;;;6.97;6.30;;;;;;;22.91;46.19;101771.47;5058170;28;20524;-67
2022/07/02 04:24:45;;;;;;;7.13;5.70;;;;;;;22.42;46.69;101775.31;5057974;28;20169;-67
2022/07/02 04:27:11;;;;;;;6.80;6.20;;;;;;;22.66;46.04;101773.84;5057815;28;20191;-68
2022/07/02 04:29:36;;;;;;;6.97;5.53;;;;;;;22.84;45.40;101776.06;5060563;28;20441;-67
2022/07/02 04:32:02;;;;;;;6.30;5.70;;;;;;;23.11;45.30;101789.56;5064437;28;20169;-67
2022/07/02 04:34:27;;;;;;;6.13;5.60;;;;;;;23.82;43.83;101776.97;5064221;28;20524;-67
2022/07/02 04:36:53;;;;;;;6.50;6.00;;;;;;;23.58;43.71;101783.00;5064639;28;20197;-67
2022/07/02 04:39:18;;;;;;;7.83;5.90;;;;;;;23.75;43.01;101788.72;5064418;28;20168;-67
2022/07/02 04:41:43;;;;;;;6.70;5.50;;;;;;;23.80;42.48;101784.16;5064402;28;20249;-68
2022/07/02 04:44:09;;;;;;;6.00;5.50;;;;;;;23.75;43.61;101790.53;5064700;28;20211;-68
2022/07/02 04:46:34;;;;;;;6.20;5.60;;;;;;;23.42;43.40;101798.53;5064372;28;20277;-68
2022/07/02 04:49:00;;;;;;;7.10;6.00;;;;;;;24.54;42.50;101792.56;5064282;28;20199;-68
2022/07/02 04:51:25;;;;;;;5.97;5.50;;;;;;;23.62;43.15;101795.31;5063899;28;20231;-68
2022/07/02 04:53:51;;;;;;;6.20;5.60;;;;;;;24.98;40.14;101793.84;5064190;28;20276;-68
2022/07/02 04:56:16;;;;;;;5.80;5.20;;;;;;;24.73;40.89;101797.31;5064272;28;20228;-68
2022/07/02 04:58:41;;;;;;;7.10;5.40;;;;;;;25.21;40.58;101796.56;5064742;28;20173;-68
2022/07/02 05:01:07;;;;;;;5.83;5.30;;;;;;;25.03;40.61;101797.19;5064297;28;20199;-67
2022/07/02 05:03:32;;;;;;;6.03;5.50;;;;;;;24.79;40.86;101802.47;5064012;28;20174;-68
2022/07/02 05:05:58;;;;;;;6.47;5.00;;;;;;;25.36;39.96;101805.88;5064535;28;20166;-67
2022/07/02 05:08:26;;;;;;;6.50;5.30;;;;;;;25.30;39.44;101808.75;5064085;28;20231;-68
2022/07/02 05:10:55;;;;;;;5.10;4.70;;;;;;;25.48;39.26;101804.56;5064296;28;20175;-68
2022/07/02 05:13:21;;;;;;;6.73;5.00;;;;;;;24.66;41.39;101811.78;5064448;28;20412;-67
2022/07/02 05:15:47;;;;;;;5.30;4.90;;;;;;;25.39;39.79;101810.22;5064008;28;20462;-69
2022/07/02 05:18:13;;;;;;;4.93;4.53;;;;;;;25.78;39.29;101815.03;5063745;28;20864;-68
2022/07/02 05:20:38;;;;;;;7.53;4.53;;;;;;;25.68;39.50;101813.63;5064231;28;20295;-69
2022/07/02 05:23:03;;;;;;;7.47;4.87;;;;;;;25.14;39.51;101816.41;5063943;28;20219;-69
2022/07/02 05:25:29;;;;;;;5.00;4.60;;;;;;;25.87;39.04;101817.38;5063880;28;20216;-68
2022/07/02 05:27:54;;;;;;;8.03;5.00;;;;;;;26.73;37.34;101805.13;5064433;28;20188;-68
2022/07/02 05:30:19;;;;;;;4.70;4.40;;;;;;;26.63;37.79;101816.25;5063951;28;20431;-68
2022/07/02 05:32:45;;;;;;;10.80;4.80;;;;;;;26.02;38.45;101820.38;5064044;28;20195;-68
2022/07/02 05:35:10;;;;;;;5.00;4.60;;;;;;;26.48;37.36;101815.06;5064162;28;20232;-68
2022/07/02 05:37:35;;;;;;;4.93;4.53;;;;;;;27.74;36.05;101819.59;5063946;28;20219;-68
2022/07/02 05:40:01;;;;;;;5.00;4.37;;;;;;;26.50;37.30;101822.09;5064062;28;20170;-69
2022/07/02 05:42:26;;;;;;;5.13;3.97;;;;;;;27.04;37.07;101838.63;5061036;28;20189;-67
2022/07/02 05:44:52;;;;;;;5.20;4.70;;;;;;;26.65;37.30;101838.47;5060469;28;20212;-68
2022/07/02 05:47:17;;;;;;;5.13;4.30;;;;;;;27.46;36.65;101836.03;5060621;28;20231;-69
2022/07/02 05:49:42;;;;;;;6.50;4.60;;;;;;;27.75;35.42;101834.69;5060905;28;20169;-69
2022/07/02 05:52:08;;;;;;;5.93;4.50;;;;;;;27.63;35.00;101840.63;5060438;28;20220;-69
2022/07/02 05:54:33;;;;;;;4.63;4.23;;;;;;;28.00;34.54;101834.47;5060515;28;20223;-69
2022/07/02 05:56:58;;;;;;;5.47;4.53;;;;;;;27.79;35.60;101843.47;5060857;28;20240;-69
2022/07/02 05:59:24;;;;;;;6.50;4.70;;;;;;;27.47;35.47;101835.94;5060609;28;20252;-69
2022/07/02 06:01:49;;;;;;;5.10;4.67;;;;;;;27.11;36.15;101841.06;5060407;28;20212;-69
2022/07/02 06:04:15;;;;;;;5.00;4.60;;;;;;;27.85;34.67;101833.34;5060521;28;20157;-68
2022/07/02 06:09:24;;;;;;;6.53;4.30;;;;;;;27.93;34.74;101843.72;5060127;28;20573;-69
2022/07/02 06:11:49;;;;;;;6.03;4.37;;;;;;;28.86;32.79;101842.03;5060101;28;20448;-69
2022/07/02 06:14:15;;;;;;;4.80;4.20;;;;;;;28.09;34.24;101860.00;5059706;28;20178;-69
2022/07/02 06:16:40;;;;;;;5.80;4.87;;;;;;;27.87;34.43;101855.59;5060282;28;20452;-68
2022/07/02 06:19:06;;;;;;;5.00;4.50;;;;;;;28.22;33.53;101847.72;5059905;28;20229;-68
2022/07/02 06:21:32;;;;;;;5.30;4.20;;;;;;;27.68;34.34;101863.56;5060007;28;20188;-67
2022/07/02 06:23:58;;;;;;;5.20;4.70;;;;;;;28.43;33.28;101861.09;5060070;28;20420;-68
2022/07/02 06:26:23;;;;;;;5.10;4.33;;;;;;;29.65;30.68;101856.81;5059867;28;20427;-68
2022/07/02 06:28:49;;;;;;;4.37;3.97;;;;;;;29.12;31.93;101864.00;5059905;28;20439;-69
2022/07/02 06:31:14;;;;;;;4.00;3.60;;;;;;;28.11;33.34;101863.47;5060445;28;20256;-68
2022/07/02 06:33:41;;;;;;;7.93;4.47;;;;;;;27.75;33.69;101871.34;5059725;28;20177;-69
2022/07/02 06:36:10;;;;;;;6.03;4.10;;;;;;;28.51;33.42;101866.94;5059722;28;20564;-70
2022/07/02 06:38:37;;;;;;;4.50;3.73;;;;;;;30.35;30.90;101861.97;5060382;28;20408;-68
2022/07/02 06:42:18;;;;;;;4.77;3.40;;;;;;;30.13;30.44;101868.56;5059786;28;20448;-69
2022/07/02 06:43:48;;;;;;;6.40;3.40;;;;;;;29.89;29.77;101871.66;5059514;28;20845;-69
2022/07/02 06:46:13;;;;;;;4.93;3.40;;;;;;;29.21;31.34;101868.91;5059719;28;20435;-68
2022/07/02 06:48:39;;;;;;;5.40;5.00;;;;;;;29.14;32.41;101862.13;5059672;28;20205;-69
2022/07/02 06:51:04;;;;;;;5.83;4.33;;;;;;;28.57;31.72;101880.03;5059900;28;20169;-68
2022/07/02 06:53:29;;;;;;;4.73;3.50;;;;;;;28.87;31.65;101886.72;5059121;28;20232;-69
2022/07/02 06:55:55;;;;;;;4.00;3.60;;;;;;;30.66;30.09;101881.78;5059119;28;20220;-68
2022/07/02 06:58:20;;;;;;;3.70;3.30;;;;;;;30.19;29.50;101889.75;5060201;28;20181;-69
2022/07/02 07:00:46;;;;;;;6.07;3.20;;;;;;;29.26;31.30;101891.06;5059594;28;20547;-69
2022/07/02 07:03:11;;;;;;;4.80;3.40;;;;;;;29.56;31.16;101891.25;5059245;28;20177;-69
2022/07/02 07:05:38;;;;;;;4.43;3.20;;;;;;;29.16;30.71;101890.63;5059618;28;20173;-69
2022/07/02 07:08:04;;;;;;;5.13;3.07;;;;;;;29.84;29.96;101887.13;5059322;28;20215;-68
2022/07/02 07:10:31;;;;;;;3.63;3.00;;;;;;;29.06;31.57;101887.56;5059186;28;20703;-69
2022/07/02 07:12:56;;;;;;;6.50;3.20;;;;;;;31.17;28.25;101887.81;5059558;28;20169;-69
2022/07/02 07:15:22;;;;;;;4.13;3.20;;;;;;;29.71;29.84;101891.41;5058975;28;20463;-68
2022/07/02 07:17:47;;;;;;;7.40;3.37;;;;;;;30.11;29.48;101883.03;5058949;28;20249;-69
2022/07/02 07:20:16;;;;;;;5.60;3.03;;;;;;;30.28;29.34;101885.66;5059535;28;20170;-68
2022/07/02 07:22:42;;;;;;;4.40;3.40;;;;;;;31.82;27.59;101886.59;5059155;28;20166;-68
2022/07/02 07:25:08;;;;;;;4.73;2.90;;;;;;;29.99;29.43;101893.53;5058756;28;20420;-68
2022/07/02 07:27:33;;;;;;;4.27;3.87;;;;;;;30.48;28.58;101891.78;5059158;28;20492;-68
2022/07/02 07:29:59;;;;;;;5.23;3.00;;;;;;;30.96;28.05;101884.53;5058051;28;20193;-69
2022/07/02 07:32:24;;;;;;;6.00;3.03;;;;;;;28.93;31.12;101893.59;5058720;28;20185;-69
2022/07/02 07:34:49;;;;;;;4.23;2.83;;;;;;;31.33;28.13;101893.16;5051847;28;20202;-69
2022/07/02 07:37:15;;;;;;;5.70;3.53;;;;;;;30.45;28.73;101886.59;5053677;28;20210;-69
2022/07/02 07:39:41;;;;;;;5.80;3.20;;;;;;;28.87;29.99;101894.75;5040347;28;20178;-69
2022/07/02 07:42:06;;;;;;;9.50;3.10;;;;;;;30.26;29.27;101884.03;5041038;28;20167;-69
2022/07/02 07:44:32;;;;;;;5.20;3.50;;;;;;;30.02;29.58;101890.66;5058178;28;20176;-69
2022/07/02 07:46:58;;;;;;;3.47;2.73;;;;;;;29.74;29.53;101893.94;5057679;28;20180;-68
2022/07/02 07:49:23;;;;;;;3.00;2.63;;;;;;;30.52;28.91;101901.44;5058507;28;20264;-69
2022/07/02 07:51:48;;;;;;;3.67;2.70;;;;;;;30.82;28.11;101892.56;5046264;28;20304;-70
2022/07/02 07:54:14;;;;;;;4.10;3.10;;;;;;;29.76;29.39;101902.78;5037398;28;20217;-69
2022/07/02 07:56:41;;;;;;;3.43;2.90;;;;;;;31.15;27.78;101899.63;5038464;28;20281;-69
2022/07/02 07:59:07;;;;;;;3.73;2.83;;;;;;;31.68;27.29;101897.41;5038268;28;20174;-69
2022/07/02 08:01:32;;;;;;;4.07;2.80;;;;;;;32.14;27.17;101896.34;5047023;28;20728;-69
2022/07/02 08:03:57;;;;;;;5.37;3.20;;;;;;;31.54;27.31;101900.88;5057436;28;20432;-70
2022/07/02 08:06:23;;;;;;;3.57;3.27;;;;;;;31.57;27.24;101901.56;5056972;28;20623;-69
2022/07/02 08:08:48;;;;;;;3.60;3.00;;;;;;;30.79;28.68;101896.28;5057905;28;20181;-68
2022/07/02 08:11:13;;;;;;;6.03;3.07;;;;;;;31.11;27.32;101898.97;5058329;28;20566;-69
2022/07/02 08:13:39;;;;;;;3.10;2.80;;;;;;;30.87;28.15;101898.53;5057781;28;20197;-70
2022/07/02 08:16:04;;;;;;;3.27;2.97;;;;;;;30.89;27.79;101900.19;5057726;28;20209;-69
2022/07/02 08:18:32;;;;;;;4.73;3.00;;;;;;;30.89;28.23;101896.63;5057684;28;20217;-70
2022/07/02 08:20:57;;;;;;;3.37;2.80;;;;;;;31.47;27.23;101888.75;5057434;28;20201;-69
2022/07/02 08:23:23;;;;;;;4.57;3.30;;;;;;;30.28;28.51;101892.88;5058138;28;20408;-70
2022/07/02 08:25:49;;;;;;;7.30;3.33;;;;;;;31.60;27.74;101894.31;5057146;28;20172;-71
2022/07/02 08:28:14;;;;;;;5.10;4.33;;;;;;;30.92;27.58;101893.75;5057915;28;20169;-70
2022/07/02 08:30:40;;;;;;;3.33;2.50;;;;;;;31.32;27.03;101899.50;5059188;28;20400;-70
2022/07/02 08:33:05;;;;;;;2.80;2.60;;;;;;;30.27;27.61;101902.78;5058030;28;20177;-69
2022/07/02 08:35:31;;;;;;;4.40;2.90;;;;;;;30.85;27.55;101898.63;5057809;28;20185;-69
2022/07/02 08:37:57;;;;;;;4.87;2.90;;;;;;;31.53;26.34;101889.25;5058270;28;20244;-69
2022/07/02 08:40:24;;;;;;;2.97;2.70;;;;;;;31.38;27.01;101898.28;5057737;28;20173;-69
2022/07/02 08:42:51;;;;;;;3.80;3.10;;;;;;;30.91;26.78;101902.78;5057477;28;20223;-70
2022/07/02 08:45:17;;;;;;;4.80;2.40;;;;;;;30.90;26.71;101896.56;5057919;28;20427;-69
2022/07/02 08:47:44;;;;;;;3.73;2.97;;;;;;;30.70;27.44;101896.81;5056650;28;20805;-70
2022/07/02 08:50:10;;;;;;;4.17;3.10;;;;;;;31.31;26.36;101904.97;5056971;28;20821;-69
2022/07/02 08:52:38;;;;;;;3.13;2.70;;;;;;;30.56;27.38;101898.47;5056851;28;20431;-69
2022/07/02 08:55:04;;;;;;;4.93;2.77;;;;;;;30.84;26.90;101896.91;5056820;28;20253;-68
2022/07/02 08:57:31;;;;;;;3.87;2.73;;;;;;;31.55;26.86;101902.63;5057709;28;20916;-69
2022/07/02 08:59:57;;;;;;;3.53;2.70;;;;;;;31.45;26.90;101899.63;5058972;28;20190;-67
2022/07/02 09:02:25;;;;;;;2.30;2.10;;;;;;;30.74;26.61;101899.25;5057216;28;20681;-70
2022/07/02 09:04:50;;;;;;;3.10;2.50;;;;;;;30.76;26.86;101899.16;5057076;28;20189;-70
2022/07/02 09:07:17;;;;;;;3.30;2.43;;;;;;;31.20;26.14;101893.03;5057077;28;20708;-69
2022/07/02 09:09:43;;;;;;;3.60;2.73;;;;;;;31.05;27.19;101900.19;5056474;28;20181;-70
2022/07/02 09:12:11;;;;;;;2.87;2.60;;;;;;;30.55;27.44;101890.47;5056905;28;20482;-70
2022/07/02 09:14:36;;;;;;;3.70;2.53;;;;;;;30.64;27.58;101894.50;5056194;28;20227;-69
2022/07/02 09:17:02;;;;;;;2.43;2.23;;;;;;;29.79;28.27;101893.72;5058422;28;20479;-70
2022/07/02 09:19:27;;;;;;;5.00;2.90;;;;;;;30.37;27.62;101889.69;5060077;28;20197;-69
2022/07/02 09:21:53;;;;;;;3.00;2.67;;;;;;;31.00;26.19;101894.19;5059719;28;20198;-71
2022/07/02 09:24:47;;;;;;;4.23;2.73;;;;;;;31.65;25.62;101884.97;5058176;28;20208;-70
2022/07/02 09:27:14;;;;;;;3.90;2.53;;;;;;;31.16;25.86;101896.00;5039188;28;20208;-69
2022/07/02 09:29:40;;;;;;;3.47;2.57;;;;;;;31.62;25.46;101898.63;5060914;28;20693;-71
2022/07/02 09:32:06;;;;;;;4.00;2.60;;;;;;;30.14;27.05;101894.50;5060438;28;20404;-71
2022/07/02 09:34:31;;;;;;;3.40;2.67;;;;;;;29.52;27.14;101884.31;5060727;28;20427;-70
2022/07/02 09:36:57;;;;;;;3.00;2.50;;;;;;;31.00;25.65;101885.22;5060409;28;20197;-70
2022/07/02 09:39:31;;;;;;;3.30;2.83;;;;;;;30.32;26.07;101881.00;5060573;28;20189;-70
2022/07/02 09:41:57;;;;;;;3.43;2.43;;;;;;;30.84;25.67;101877.19;5060474;28;20252;-71
2022/07/02 09:44:23;;;;;;;3.77;3.00;;;;;;;31.65;25.11;101863.41;5060372;28;20503;-70
2022/07/02 09:46:49;;;;;;;3.53;2.83;;;;;;;32.06;25.02;101867.16;5057764;28;20606;-70
2022/07/02 09:49:15;;;;;;;4.63;2.70;;;;;;;31.62;25.19;101860.88;5060126;28;20431;-70
2022/07/02 09:51:51;;;;;;;3.50;2.80;;;;;;;30.60;25.77;101874.09;5059954;28;20536;-70
2022/07/02 09:54:24;;;;;;;3.40;3.10;;;;;;;28.05;29.67;101882.53;5059044;28;20531;-69
2022/07/02 09:56:59;;;;;;;4.23;2.60;;;;;;;28.41;29.07;101879.03;5059582;28;20774;-70
2022/07/02 09:59:24;;;;;;;3.33;3.03;;;;;;;30.95;27.01;101865.78;5060160;28;20534;-71
2022/07/02 10:01:50;;;;;;;3.53;2.87;;;;;;;30.46;26.12;101873.06;5059513;28;20507;-69
2022/07/02 10:04:15;;;;;;;3.67;2.70;;;;;;;30.35;26.33;101864.66;5059886;28;20570;-70
2022/07/02 10:06:42;;;;;;;5.00;2.63;;;;;;;31.64;27.31;101868.91;5060251;28;20208;-70
2022/07/02 10:09:09;;;;;;;6.40;2.70;;;;;;;31.32;26.02;101867.16;5059270;28;20551;-70
2022/07/02 10:11:36;;;;;;;4.07;2.20;;;;;;;32.03;23.75;101868.22;5058982;28;20421;-69
2022/07/02 10:14:02;;;;;;;2.60;2.30;;;;;;;31.25;24.81;101871.19;5060055;28;20695;-69
2022/07/02 10:16:29;;;;;;;4.27;2.60;;;;;;;32.02;24.71;101873.72;5058864;28;20795;-70
2022/07/02 10:18:57;;;;;;;3.93;2.53;;;;;;;31.79;24.16;101867.06;5059111;28;20562;-69
2022/07/02 10:21:24;;;;;;;4.53;2.67;;;;;;;32.60;22.65;101865.50;5060614;28;20431;-69
2022/07/02 10:23:50;;;;;;;7.60;4.57;;;;;;;30.72;25.58;101855.41;5060371;28;20692;-70
2022/07/02 10:26:16;;;;;;;2.87;2.57;;;;;;;29.29;26.34;101866.72;5059726;28;20434;-70
2022/07/02 10:28:42;;;;;;;3.43;2.60;;;;;;;30.19;25.72;101870.91;5059076;28;20408;-69
2022/07/02 10:31:14;;;;;;;7.37;3.87;;;;;;;29.53;26.82;101869.94;5060164;28;20519;-69
2022/07/02 10:33:46;;;;;;;6.63;3.10;;;;;;;28.39;28.89;101865.72;5059087;28;20422;-71
2022/07/02 10:36:14;;;;;;;5.57;3.20;;;;;;;28.49;28.72;101860.78;5059976;28;20506;-71
2022/07/02 10:38:40;;;;;;;4.77;2.70;;;;;;;27.98;29.23;101871.19;5058699;28;20701;-71
2022/07/02 10:41:07;;;;;;;3.80;2.90;;;;;;;28.55;28.46;101862.28;5059355;28;20420;-70
2022/07/02 10:43:33;;;;;;;3.67;2.40;;;;;;;29.91;26.75;101858.13;5058363;28;20193;-70
2022/07/02 10:46:06;;;;;;;2.50;2.10;;;;;;;27.68;28.75;101860.91;5059627;28;20690;-70
2022/07/02 10:48:34;;;;;;;3.27;2.70;;;;;;;28.40;29.88;101869.25;5059583;28;20860;-69
2022/07/02 10:51:00;;;;;;;4.30;3.23;;;;;;;28.16;28.53;101858.75;5058452;28;20428;-69
2022/07/02 10:53:27;;;;;;;2.97;2.70;;;;;;;28.60;29.66;101854.03;5059437;28;20424;-71
2022/07/02 10:56:02;;;;;;;3.10;2.63;;;;;;;29.22;27.44;101850.00;5059215;28;20202;-71
2022/07/02 10:58:36;;;;;;;4.30;2.73;;;;;;;30.45;26.56;101852.47;5059207;28;20426;-71
2022/07/02 11:01:17;;;;;;;2.83;2.50;;;;;;;29.39;28.22;101851.88;5060074;28;20695;-70
2022/07/02 11:03:56;;;;;;;2.60;2.40;;;;;;;28.55;28.39;101848.88;5058543;28;20432;-70
2022/07/02 11:06:23;;;;;;;2.77;2.53;;;;;;;28.14;28.15;101849.06;5058448;28;20456;-70
2022/07/02 11:08:53;;;;;;;4.70;2.90;;;;;;;27.80;29.40;101855.94;5058195;28;20690;-69
2022/07/02 11:11:27;;;;;;;4.70;2.73;;;;;;;27.23;31.20;101859.28;5058865;28;20428;-71
2022/07/02 11:14:00;;;;;;;3.20;2.80;;;;;;;27.68;29.50;101850.19;5058971;28;20407;-70
2022/07/02 11:16:38;;;;;;;5.40;3.27;;;;;;;27.37;29.66;101846.22;5058266;28;20543;-70
2022/07/02 11:19:06;;;;;;;3.97;2.97;;;;;;;27.24;30.27;101850.31;5078532;28;20545;-70
2022/07/02 11:21:31;;;;;;;4.43;2.70;;;;;;;28.45;28.37;101834.19;5078859;28;20416;-70